sensor_id;sensor_type;location;lat;lon;timestamp;P1;durP1;ratioP1;P2;durP2;ratioP2
13026;SDS011;6580;42.680;23.324;2023-05-29T00:01:54;4.90;;;3.97;;
13026;SDS011;6580;42.680;23.324;2023-05-29T00:04:42;6.40;;;5.13;;
13026;SDS011;6580;42.680;23.324;2023-05-29T00:07:29;4.77;;;4.17;;
13026;SDS011;6580;42.680;23.324;2023-05-29T00:10:16;4.30;;;3.90;;
13026;SDS011;6580;42.680;23.324;2023-05-29T00:13:01;5.73;;;4.80;;
13026;SDS011;6580;42.680;23.324;2023-05-29T00:15:47;4.57;;;4.17;;
13026;SDS011;6580;42.680;23.324;2023-05-29T00:18:32;4.90;;;4.40;;
13026;SDS011;6580;42.680;23.324;2023-05-29T00:21:22;5.33;;;4.53;;
13026;SDS011;6580;42.680;23.324;2023-05-29T00:24:08;4.60;;;4.07;;
13026;SDS011;6580;42.680;23.324;2023-05-29T00:26:54;5.87;;;4.43;;
13026;SDS011;6580;42.680;23.324;2023-05-29T00:29:48;4.20;;;3.90;;
13026;SDS011;6580;42.680;23.324;2023-05-29T00:32:36;5.57;;;4.23;;
13026;SDS011;6580;42.680;23.324;2023-05-29T00:35:22;5.57;;;4.47;;
13026;SDS011;6580;42.680;23.324;2023-05-29T00:38:08;6.20;;;4.60;;
13026;SDS011;6580;42.680;23.324;2023-05-29T00:40:54;5.37;;;4.43;;
13026;SDS011;6580;42.680;23.324;2023-05-29T00:43:40;7.90;;;4.13;;
13026;SDS011;6580;42.680;23.324;2023-05-29T00:46:25;5.17;;;4.67;;
13026;SDS011;6580;42.680;23.324;2023-05-29T00:49:11;5.00;;;4.40;;
13026;SDS011;6580;42.680;23.324;2023-05-29T00:52:00;4.60;;;4.07;;
13026;SDS011;6580;42.680;23.324;2023-05-29T00:54:56;5.20;;;4.70;;
13026;SDS011;6580;42.680;23.324;2023-05-29T00:57:45;5.93;;;4.57;;
13026;SDS011;6580;42.680;23.324;2023-05-29T01:00:31;5.20;;;4.37;;
13026;SDS011;6580;42.680;23.324;2023-05-29T01:03:18;4.67;;;4.27;;
13026;SDS011;6580;42.680;23.324;2023-05-29T01:06:06;4.97;;;4.53;;
13026;SDS011;6580;42.680;23.324;2023-05-29T01:08:56;6.90;;;4.20;;
13026;SDS011;6580;42.680;23.324;2023-05-29T01:11:45;5.13;;;4.63;;
13026;SDS011;6580;42.680;23.324;2023-05-29T01:14:41;5.03;;;4.50;;
13026;SDS011;6580;42.680;23.324;2023-05-29T01:17:36;3.83;;;3.50;;
13026;SDS011;6580;42.680;23.324;2023-05-29T01:20:31;5.83;;;4.70;;
13026;SDS011;6580;42.680;23.324;2023-05-29T01:23:29;4.50;;;3.70;;
13026;SDS011;6580;42.680;23.324;2023-05-29T01:29:42;4.13;;;3.73;;
13026;SDS011;6580;42.680;23.324;2023-05-29T01:32:32;4.57;;;4.10;;
13026;SDS011;6580;42.680;23.324;2023-05-29T01:35:20;7.50;;;4.73;;
13026;SDS011;6580;42.680;23.324;2023-05-29T01:38:06;4.57;;;3.93;;
13026;SDS011;6580;42.680;23.324;2023-05-29T01:40:51;4.17;;;3.77;;
13026;SDS011;6580;42.680;23.324;2023-05-29T01:43:43;4.90;;;4.47;;
13026;SDS011;6580;42.680;23.324;2023-05-29T01:46:33;5.80;;;4.50;;
13026;SDS011;6580;42.680;23.324;2023-05-29T01:49:22;5.63;;;4.70;;
13026;SDS011;6580;42.680;23.324;2023-05-29T01:52:12;4.87;;;4.40;;
13026;SDS011;6580;42.680;23.324;2023-05-29T01:54:59;4.93;;;4.50;;
13026;SDS011;6580;42.680;23.324;2023-05-29T01:57:46;5.77;;;4.77;;
13026;SDS011;6580;42.680;23.324;2023-05-29T02:00:36;4.67;;;4.17;;
13026;SDS011;6580;42.680;23.324;2023-05-29T02:03:23;6.03;;;4.77;;
13026;SDS011;6580;42.680;23.324;2023-05-29T02:06:13;6.33;;;5.17;;
13026;SDS011;6580;42.680;23.324;2023-05-29T02:08:59;5.07;;;4.57;;
13026;SDS011;6580;42.680;23.324;2023-05-29T02:11:45;6.73;;;4.80;;
13026;SDS011;6580;42.680;23.324;2023-05-29T02:14:34;5.13;;;4.63;;
13026;SDS011;6580;42.680;23.324;2023-05-29T02:17:23;4.50;;;4.07;;
13026;SDS011;6580;42.680;23.324;2023-05-29T02:20:10;5.83;;;5.23;;
13026;SDS011;6580;42.680;23.324;2023-05-29T02:22:56;4.30;;;3.90;;
13026;SDS011;6580;42.680;23.324;2023-05-29T02:25:44;5.20;;;4.70;;
13026;SDS011;6580;42.680;23.324;2023-05-29T02:28:32;4.63;;;4.23;;
13026;SDS011;6580;42.680;23.324;2023-05-29T02:31:21;6.07;;;5.23;;
13026;SDS011;6580;42.680;23.324;2023-05-29T02:34:08;8.07;;;5.17;;
13026;SDS011;6580;42.680;23.324;2023-05-29T02:36:57;6.07;;;5.10;;
13026;SDS011;6580;42.680;23.324;2023-05-29T02:39:51;6.00;;;4.90;;
13026;SDS011;6580;42.680;23.324;2023-05-29T02:42:40;5.87;;;4.53;;
13026;SDS011;6580;42.680;23.324;2023-05-29T02:45:29;5.93;;;4.87;;
13026;SDS011;6580;42.680;23.324;2023-05-29T02:48:14;5.80;;;4.40;;
13026;SDS011;6580;42.680;23.324;2023-05-29T02:51:03;6.90;;;4.83;;
13026;SDS011;6580;42.680;23.324;2023-05-29T02:53:53;6.27;;;4.77;;
13026;SDS011;6580;42.680;23.324;2023-05-29T02:56:39;7.17;;;5.23;;
13026;SDS011;6580;42.680;23.324;2023-05-29T02:59:27;7.87;;;5.67;;
13026;SDS011;6580;42.680;23.324;2023-05-29T03:02:16;4.87;;;4.33;;
13026;SDS011;6580;42.680;23.324;2023-05-29T03:05:02;5.67;;;4.37;;
13026;SDS011;6580;42.680;23.324;2023-05-29T03:07:51;6.57;;;4.57;;
13026;SDS011;6580;42.680;23.324;2023-05-29T03:10:36;4.67;;;4.27;;
13026;SDS011;6580;42.680;23.324;2023-05-29T03:13:24;4.97;;;4.30;;
13026;SDS011;6580;42.680;23.324;2023-05-29T03:16:11;5.50;;;4.40;;
13026;SDS011;6580;42.680;23.324;2023-05-29T03:18:59;5.97;;;4.57;;
13026;SDS011;6580;42.680;23.324;2023-05-29T03:21:45;6.43;;;4.40;;
13026;SDS011;6580;42.680;23.324;2023-05-29T03:24:34;5.67;;;5.07;;
13026;SDS011;6580;42.680;23.324;2023-05-29T03:27:21;6.80;;;5.13;;
13026;SDS011;6580;42.680;23.324;2023-05-29T03:30:17;6.23;;;5.03;;
13026;SDS011;6580;42.680;23.324;2023-05-29T03:33:09;6.07;;;4.53;;
13026;SDS011;6580;42.680;23.324;2023-05-29T03:35:57;7.20;;;4.70;;
13026;SDS011;6580;42.680;23.324;2023-05-29T03:38:44;6.07;;;5.47;;
13026;SDS011;6580;42.680;23.324;2023-05-29T03:41:32;5.90;;;5.37;;
13026;SDS011;6580;42.680;23.324;2023-05-29T03:44:19;6.33;;;5.73;;
13026;SDS011;6580;42.680;23.324;2023-05-29T03:47:05;5.50;;;4.60;;
13026;SDS011;6580;42.680;23.324;2023-05-29T03:49:52;6.10;;;4.37;;
13026;SDS011;6580;42.680;23.324;2023-05-29T03:52:39;8.00;;;5.60;;
13026;SDS011;6580;42.680;23.324;2023-05-29T03:55:25;6.87;;;5.70;;
13026;SDS011;6580;42.680;23.324;2023-05-29T03:58:16;8.00;;;4.93;;
13026;SDS011;6580;42.680;23.324;2023-05-29T04:01:03;7.63;;;5.97;;
13026;SDS011;6580;42.680;23.324;2023-05-29T04:03:48;6.77;;;6.03;;
13026;SDS011;6580;42.680;23.324;2023-05-29T04:06:34;4.87;;;4.47;;
13026;SDS011;6580;42.680;23.324;2023-05-29T04:09:26;6.13;;;5.53;;
13026;SDS011;6580;42.680;23.324;2023-05-29T04:12:13;7.20;;;5.47;;
13026;SDS011;6580;42.680;23.324;2023-05-29T04:15:06;6.53;;;5.70;;
13026;SDS011;6580;42.680;23.324;2023-05-29T04:17:54;5.60;;;5.10;;
13026;SDS011;6580;42.680;23.324;2023-05-29T04:20:41;6.57;;;5.60;;
13026;SDS011;6580;42.680;23.324;2023-05-29T04:23:31;6.43;;;5.10;;
13026;SDS011;6580;42.680;23.324;2023-05-29T04:26:20;6.40;;;5.33;;
13026;SDS011;6580;42.680;23.324;2023-05-29T04:29:11;6.90;;;6.20;;
13026;SDS011;6580;42.680;23.324;2023-05-29T04:31:59;6.60;;;5.30;;
13026;SDS011;6580;42.680;23.324;2023-05-29T04:34:48;7.30;;;5.43;;
13026;SDS011;6580;42.680;23.324;2023-05-29T04:37:35;6.53;;;5.40;;
13026;SDS011;6580;42.680;23.324;2023-05-29T04:40:23;6.60;;;5.50;;
13026;SDS011;6580;42.680;23.324;2023-05-29T04:43:10;6.77;;;5.43;;
13026;SDS011;6580;42.680;23.324;2023-05-29T04:45:56;6.83;;;5.97;;
13026;SDS011;6580;42.680;23.324;2023-05-29T04:48:47;6.93;;;5.63;;
13026;SDS011;6580;42.680;23.324;2023-05-29T04:51:37;5.10;;;4.47;;
13026;SDS011;6580;42.680;23.324;2023-05-29T04:54:24;5.23;;;4.77;;
13026;SDS011;6580;42.680;23.324;2023-05-29T04:57:10;5.03;;;4.53;;
13026;SDS011;6580;42.680;23.324;2023-05-29T04:59:56;6.77;;;4.30;;
13026;SDS011;6580;42.680;23.324;2023-05-29T05:02:42;5.23;;;4.53;;
13026;SDS011;6580;42.680;23.324;2023-05-29T05:05:32;7.30;;;5.17;;
13026;SDS011;6580;42.680;23.324;2023-05-29T05:08:18;4.80;;;4.40;;
13026;SDS011;6580;42.680;23.324;2023-05-29T05:11:04;5.03;;;4.43;;
13026;SDS011;6580;42.680;23.324;2023-05-29T05:13:51;6.43;;;4.60;;
13026;SDS011;6580;42.680;23.324;2023-05-29T05:16:40;5.70;;;4.97;;
13026;SDS011;6580;42.680;23.324;2023-05-29T05:19:29;6.83;;;5.30;;
13026;SDS011;6580;42.680;23.324;2023-05-29T05:22:16;7.33;;;5.47;;
13026;SDS011;6580;42.680;23.324;2023-05-29T05:25:05;6.90;;;5.97;;
13026;SDS011;6580;42.680;23.324;2023-05-29T05:27:52;10.00;;;7.00;;
13026;SDS011;6580;42.680;23.324;2023-05-29T05:30:38;9.07;;;6.63;;
13026;SDS011;6580;42.680;23.324;2023-05-29T05:33:25;9.37;;;6.80;;
13026;SDS011;6580;42.680;23.324;2023-05-29T05:36:13;8.23;;;6.60;;
13026;SDS011;6580;42.680;23.324;2023-05-29T05:39:09;9.77;;;6.30;;
13026;SDS011;6580;42.680;23.324;2023-05-29T05:41:57;8.77;;;6.20;;
13026;SDS011;6580;42.680;23.324;2023-05-29T05:44:44;8.07;;;6.53;;
13026;SDS011;6580;42.680;23.324;2023-05-29T05:47:32;8.47;;;6.27;;
13026;SDS011;6580;42.680;23.324;2023-05-29T05:50:20;7.10;;;6.03;;
13026;SDS011;6580;42.680;23.324;2023-05-29T05:53:08;6.63;;;5.90;;
13026;SDS011;6580;42.680;23.324;2023-05-29T05:55:56;6.53;;;5.50;;
13026;SDS011;6580;42.680;23.324;2023-05-29T05:58:42;5.25;;;4.60;;
13026;SDS011;6580;42.680;23.324;2023-05-29T06:01:28;4.45;;;4.05;;
13026;SDS011;6580;42.680;23.324;2023-05-29T06:04:14;4.30;;;3.53;;
13026;SDS011;6580;42.680;23.324;2023-05-29T06:07:02;2.95;;;2.72;;
13026;SDS011;6580;42.680;23.324;2023-05-29T06:09:51;2.92;;;2.58;;
13026;SDS011;6580;42.680;23.324;2023-05-29T06:12:39;3.47;;;3.13;;
13026;SDS011;6580;42.680;23.324;2023-05-29T06:15:27;4.03;;;3.63;;
13026;SDS011;6580;42.680;23.324;2023-05-29T06:18:12;3.40;;;3.17;;
13026;SDS011;6580;42.680;23.324;2023-05-29T06:20:59;3.80;;;3.45;;
13026;SDS011;6580;42.680;23.324;2023-05-29T06:23:46;3.80;;;3.50;;
13026;SDS011;6580;42.680;23.324;2023-05-29T06:26:31;3.60;;;3.30;;
13026;SDS011;6580;42.680;23.324;2023-05-29T06:29:18;4.18;;;3.33;;
13026;SDS011;6580;42.680;23.324;2023-05-29T06:32:05;5.28;;;4.07;;
13026;SDS011;6580;42.680;23.324;2023-05-29T06:34:50;5.50;;;4.65;;
13026;SDS011;6580;42.680;23.324;2023-05-29T06:37:37;3.72;;;3.10;;
13026;SDS011;6580;42.680;23.324;2023-05-29T06:40:22;2.75;;;2.55;;
13026;SDS011;6580;42.680;23.324;2023-05-29T06:43:08;2.67;;;2.47;;
13026;SDS011;6580;42.680;23.324;2023-05-29T06:45:58;3.05;;;2.13;;
13026;SDS011;6580;42.680;23.324;2023-05-29T06:48:44;2.15;;;2.03;;
13026;SDS011;6580;42.680;23.324;2023-05-29T06:51:29;2.40;;;2.20;;
13026;SDS011;6580;42.680;23.324;2023-05-29T06:54:16;3.15;;;2.78;;
13026;SDS011;6580;42.680;23.324;2023-05-29T06:57:02;2.22;;;2.03;;
13026;SDS011;6580;42.680;23.324;2023-05-29T06:59:47;2.40;;;2.22;;
13026;SDS011;6580;42.680;23.324;2023-05-29T07:05:47;2.85;;;2.63;;
13026;SDS011;6580;42.680;23.324;2023-05-29T07:08:32;3.30;;;3.00;;
13026;SDS011;6580;42.680;23.324;2023-05-29T07:11:18;2.17;;;2.05;;
13026;SDS011;6580;42.680;23.324;2023-05-29T07:14:04;1.63;;;1.52;;
13026;SDS011;6580;42.680;23.324;2023-05-29T07:16:49;1.75;;;1.65;;
13026;SDS011;6580;42.680;23.324;2023-05-29T07:19:38;2.10;;;2.00;;
13026;SDS011;6580;42.680;23.324;2023-05-29T07:22:24;4.32;;;3.47;;
13026;SDS011;6580;42.680;23.324;2023-05-29T07:25:12;2.30;;;2.10;;
13026;SDS011;6580;42.680;23.324;2023-05-29T07:27:58;3.92;;;2.53;;
13026;SDS011;6580;42.680;23.324;2023-05-29T07:30:45;2.38;;;2.17;;
13026;SDS011;6580;42.680;23.324;2023-05-29T07:33:32;2.53;;;2.33;;
13026;SDS011;6580;42.680;23.324;2023-05-29T07:36:21;2.53;;;2.33;;
13026;SDS011;6580;42.680;23.324;2023-05-29T07:39:06;8.10;;;3.15;;
13026;SDS011;6580;42.680;23.324;2023-05-29T07:41:52;2.90;;;2.70;;
13026;SDS011;6580;42.680;23.324;2023-05-29T07:44:39;4.78;;;3.10;;
13026;SDS011;6580;42.680;23.324;2023-05-29T07:47:28;4.95;;;2.78;;
13026;SDS011;6580;42.680;23.324;2023-05-29T07:50:14;2.72;;;2.53;;
13026;SDS011;6580;42.680;23.324;2023-05-29T07:53:01;2.92;;;2.55;;
13026;SDS011;6580;42.680;23.324;2023-05-29T07:55:48;2.80;;;2.60;;
13026;SDS011;6580;42.680;23.324;2023-05-29T07:58:34;2.55;;;2.20;;
13026;SDS011;6580;42.680;23.324;2023-05-29T08:01:21;1.88;;;1.77;;
13026;SDS011;6580;42.680;23.324;2023-05-29T08:04:07;2.38;;;1.98;;
13026;SDS011;6580;42.680;23.324;2023-05-29T08:06:53;3.60;;;2.20;;
13026;SDS011;6580;42.680;23.324;2023-05-29T08:09:41;3.00;;;2.75;;
13026;SDS011;6580;42.680;23.324;2023-05-29T08:12:27;4.13;;;2.78;;
13026;SDS011;6580;42.680;23.324;2023-05-29T08:15:12;3.70;;;2.95;;
13026;SDS011;6580;42.680;23.324;2023-05-29T08:17:59;5.25;;;3.78;;
13026;SDS011;6580;42.680;23.324;2023-05-29T08:20:45;2.45;;;2.22;;
13026;SDS011;6580;42.680;23.324;2023-05-29T08:23:32;4.28;;;3.55;;
13026;SDS011;6580;42.680;23.324;2023-05-29T08:26:23;3.22;;;2.92;;
13026;SDS011;6580;42.680;23.324;2023-05-29T08:29:08;2.83;;;2.47;;
13026;SDS011;6580;42.680;23.324;2023-05-29T08:31:54;2.67;;;2.47;;
13026;SDS011;6580;42.680;23.324;2023-05-29T08:34:41;6.40;;;3.40;;
13026;SDS011;6580;42.680;23.324;2023-05-29T08:37:29;2.60;;;2.40;;
13026;SDS011;6580;42.680;23.324;2023-05-29T08:40:15;2.58;;;2.38;;
13026;SDS011;6580;42.680;23.324;2023-05-29T08:43:02;7.60;;;6.35;;
13026;SDS011;6580;42.680;23.324;2023-05-29T08:45:53;2.80;;;2.60;;
13026;SDS011;6580;42.680;23.324;2023-05-29T08:48:43;2.65;;;2.45;;
13026;SDS011;6580;42.680;23.324;2023-05-29T08:51:37;2.35;;;2.15;;
13026;SDS011;6580;42.680;23.324;2023-05-29T08:54:27;2.58;;;2.25;;
13026;SDS011;6580;42.680;23.324;2023-05-29T08:57:16;12.73;;;10.93;;
13026;SDS011;6580;42.680;23.324;2023-05-29T09:00:07;4.15;;;3.85;;
13026;SDS011;6580;42.680;23.324;2023-05-29T09:02:56;2.75;;;2.55;;
13026;SDS011;6580;42.680;23.324;2023-05-29T09:05:43;3.00;;;2.70;;
13026;SDS011;6580;42.680;23.324;2023-05-29T09:08:30;6.10;;;5.50;;
13026;SDS011;6580;42.680;23.324;2023-05-29T09:11:16;4.13;;;3.72;;
13026;SDS011;6580;42.680;23.324;2023-05-29T09:14:02;5.03;;;4.53;;
13026;SDS011;6580;42.680;23.324;2023-05-29T09:16:50;3.47;;;3.17;;
13026;SDS011;6580;42.680;23.324;2023-05-29T09:19:36;2.42;;;2.28;;
13026;SDS011;6580;42.680;23.324;2023-05-29T09:22:25;2.60;;;2.40;;
13026;SDS011;6580;42.680;23.324;2023-05-29T09:25:13;2.08;;;1.90;;
13026;SDS011;6580;42.680;23.324;2023-05-29T09:28:01;2.45;;;2.25;;
13026;SDS011;6580;42.680;23.324;2023-05-29T09:30:51;2.95;;;2.50;;
13026;SDS011;6580;42.680;23.324;2023-05-29T09:33:46;2.50;;;2.30;;
13026;SDS011;6580;42.680;23.324;2023-05-29T09:36:32;2.63;;;2.42;;
13026;SDS011;6580;42.680;23.324;2023-05-29T09:39:18;2.88;;;2.63;;
13026;SDS011;6580;42.680;23.324;2023-05-29T09:42:04;2.78;;;2.58;;
13026;SDS011;6580;42.680;23.324;2023-05-29T09:44:51;3.10;;;2.80;;
13026;SDS011;6580;42.680;23.324;2023-05-29T09:47:38;2.80;;;2.50;;
13026;SDS011;6580;42.680;23.324;2023-05-29T09:50:26;2.90;;;2.70;;
13026;SDS011;6580;42.680;23.324;2023-05-29T09:53:17;3.08;;;2.53;;
13026;SDS011;6580;42.680;23.324;2023-05-29T09:56:04;2.53;;;2.33;;
13026;SDS011;6580;42.680;23.324;2023-05-29T09:58:51;3.30;;;3.00;;
13026;SDS011;6580;42.680;23.324;2023-05-29T10:01:40;2.70;;;2.50;;
13026;SDS011;6580;42.680;23.324;2023-05-29T10:04:27;3.33;;;2.78;;
13026;SDS011;6580;42.680;23.324;2023-05-29T10:07:20;2.25;;;2.13;;
13026;SDS011;6580;42.680;23.324;2023-05-29T10:10:10;3.20;;;2.90;;
13026;SDS011;6580;42.680;23.324;2023-05-29T10:12:57;2.72;;;2.53;;
13026;SDS011;6580;42.680;23.324;2023-05-29T10:15:47;3.30;;;3.00;;
13026;SDS011;6580;42.680;23.324;2023-05-29T10:18:36;3.95;;;3.03;;
13026;SDS011;6580;42.680;23.324;2023-05-29T10:21:27;2.70;;;2.50;;
13026;SDS011;6580;42.680;23.324;2023-05-29T10:24:15;2.00;;;1.90;;
13026;SDS011;6580;42.680;23.324;2023-05-29T10:27:02;2.60;;;2.40;;
13026;SDS011;6580;42.680;23.324;2023-05-29T10:29:52;3.13;;;2.92;;
13026;SDS011;6580;42.680;23.324;2023-05-29T10:32:51;2.92;;;2.67;;
13026;SDS011;6580;42.680;23.324;2023-05-29T10:35:45;2.75;;;2.55;;
13026;SDS011;6580;42.680;23.324;2023-05-29T10:38:34;2.90;;;2.70;;
13026;SDS011;6580;42.680;23.324;2023-05-29T10:41:31;2.42;;;2.33;;
13026;SDS011;6580;42.680;23.324;2023-05-29T10:44:38;5.13;;;4.63;;
13026;SDS011;6580;42.680;23.324;2023-05-29T10:47:30;3.72;;;3.13;;
13026;SDS011;6580;42.680;23.324;2023-05-29T10:50:19;3.50;;;3.20;;
13026;SDS011;6580;42.680;23.324;2023-05-29T10:53:23;3.78;;;3.47;;
13026;SDS011;6580;42.680;23.324;2023-05-29T10:56:14;2.58;;;2.38;;
13026;SDS011;6580;42.680;23.324;2023-05-29T10:59:06;4.13;;;3.03;;
13026;SDS011;6580;42.680;23.324;2023-05-29T11:01:53;4.03;;;3.63;;
13026;SDS011;6580;42.680;23.324;2023-05-29T11:04:39;2.67;;;2.47;;
13026;SDS011;6580;42.680;23.324;2023-05-29T11:07:34;4.40;;;3.13;;
13026;SDS011;6580;42.680;23.324;2023-05-29T11:10:43;3.83;;;3.00;;
13026;SDS011;6580;42.680;23.324;2023-05-29T11:13:39;2.38;;;2.28;;
13026;SDS011;6580;42.680;23.324;2023-05-29T11:16:39;2.90;;;2.70;;
13026;SDS011;6580;42.680;23.324;2023-05-29T11:19:24;3.10;;;2.90;;
13026;SDS011;6580;42.680;23.324;2023-05-29T11:22:14;3.38;;;3.05;;
13026;SDS011;6580;42.680;23.324;2023-05-29T11:25:07;2.35;;;2.17;;
13026;SDS011;6580;42.680;23.324;2023-05-29T11:27:55;2.75;;;2.55;;
13026;SDS011;6580;42.680;23.324;2023-05-29T11:30:44;5.18;;;2.90;;
13026;SDS011;6580;42.680;23.324;2023-05-29T11:33:32;2.78;;;2.58;;
13026;SDS011;6580;42.680;23.324;2023-05-29T11:36:32;3.50;;;3.20;;
13026;SDS011;6580;42.680;23.324;2023-05-29T11:39:18;2.75;;;2.50;;
13026;SDS011;6580;42.680;23.324;2023-05-29T11:42:04;2.72;;;2.53;;
13026;SDS011;6580;42.680;23.324;2023-05-29T11:44:53;2.80;;;2.55;;
13026;SDS011;6580;42.680;23.324;2023-05-29T11:47:55;3.00;;;2.70;;
13026;SDS011;6580;42.680;23.324;2023-05-29T11:50:45;3.50;;;3.20;;
13026;SDS011;6580;42.680;23.324;2023-05-29T11:53:34;2.75;;;2.55;;
13026;SDS011;6580;42.680;23.324;2023-05-29T11:56:19;2.80;;;2.60;;
13026;SDS011;6580;42.680;23.324;2023-05-29T11:59:10;2.75;;;2.55;;
13026;SDS011;6580;42.680;23.324;2023-05-29T12:01:57;2.92;;;2.65;;
13026;SDS011;6580;42.680;23.324;2023-05-29T12:04:43;3.22;;;2.92;;
13026;SDS011;6580;42.680;23.324;2023-05-29T12:07:30;3.67;;;2.60;;
13026;SDS011;6580;42.680;23.324;2023-05-29T12:10:20;2.78;;;2.58;;
13026;SDS011;6580;42.680;23.324;2023-05-29T12:13:06;3.17;;;2.80;;
13026;SDS011;6580;42.680;23.324;2023-05-29T12:15:52;2.55;;;2.30;;
13026;SDS011;6580;42.680;23.324;2023-05-29T12:18:40;4.72;;;3.00;;
13026;SDS011;6580;42.680;23.324;2023-05-29T12:21:27;3.13;;;2.85;;
13026;SDS011;6580;42.680;23.324;2023-05-29T12:24:15;5.10;;;3.42;;
13026;SDS011;6580;42.680;23.324;2023-05-29T12:27:03;3.72;;;3.42;;
13026;SDS011;6580;42.680;23.324;2023-05-29T12:29:59;4.05;;;3.65;;
13026;SDS011;6580;42.680;23.324;2023-05-29T12:32:45;4.15;;;3.42;;
13026;SDS011;6580;42.680;23.324;2023-05-29T12:35:32;7.60;;;4.82;;
13026;SDS011;6580;42.680;23.324;2023-05-29T12:38:19;4.75;;;3.63;;
13026;SDS011;6580;42.680;23.324;2023-05-29T12:41:08;3.97;;;3.22;;
13026;SDS011;6580;42.680;23.324;2023-05-29T12:43:54;4.20;;;3.80;;
13026;SDS011;6580;42.680;23.324;2023-05-29T12:46:41;4.57;;;3.85;;
13026;SDS011;6580;42.680;23.324;2023-05-29T12:49:27;5.45;;;3.13;;
13026;SDS011;6580;42.680;23.324;2023-05-29T12:52:15;4.00;;;3.30;;
13026;SDS011;6580;42.680;23.324;2023-05-29T12:55:05;5.57;;;3.97;;
13026;SDS011;6580;42.680;23.324;2023-05-29T12:57:53;5.60;;;3.42;;
13026;SDS011;6580;42.680;23.324;2023-05-29T13:00:40;3.35;;;3.03;;
13026;SDS011;6580;42.680;23.324;2023-05-29T13:03:29;4.00;;;3.03;;
13026;SDS011;6580;42.680;23.324;2023-05-29T13:06:15;3.50;;;2.97;;
13026;SDS011;6580;42.680;23.324;2023-05-29T13:09:00;3.85;;;3.40;;
13026;SDS011;6580;42.680;23.324;2023-05-29T13:11:46;3.53;;;3.20;;
13026;SDS011;6580;42.680;23.324;2023-05-29T13:14:32;3.28;;;2.97;;
13026;SDS011;6580;42.680;23.324;2023-05-29T13:17:19;4.78;;;4.32;;
13026;SDS011;6580;42.680;23.324;2023-05-29T13:20:07;4.20;;;3.80;;
13026;SDS011;6580;42.680;23.324;2023-05-29T13:22:55;4.30;;;3.90;;
13026;SDS011;6580;42.680;23.324;2023-05-29T13:25:41;3.58;;;3.28;;
13026;SDS011;6580;42.680;23.324;2023-05-29T13:28:27;4.28;;;3.85;;
13026;SDS011;6580;42.680;23.324;2023-05-29T13:31:14;3.75;;;3.47;;
13026;SDS011;6580;42.680;23.324;2023-05-29T13:34:01;3.42;;;3.13;;
13026;SDS011;6580;42.680;23.324;2023-05-29T13:36:47;5.50;;;3.38;;
13026;SDS011;6580;42.680;23.324;2023-05-29T13:39:33;3.50;;;3.20;;
13026;SDS011;6580;42.680;23.324;2023-05-29T13:42:19;6.22;;;5.05;;
13026;SDS011;6580;42.680;23.324;2023-05-29T13:45:06;3.70;;;3.40;;
13026;SDS011;6580;42.680;23.324;2023-05-29T13:47:54;3.85;;;3.50;;
13026;SDS011;6580;42.680;23.324;2023-05-29T13:50:42;4.15;;;3.75;;
13026;SDS011;6580;42.680;23.324;2023-05-29T13:53:29;4.60;;;4.20;;
13026;SDS011;6580;42.680;23.324;2023-05-29T13:56:15;3.13;;;2.92;;
13026;SDS011;6580;42.680;23.324;2023-05-29T13:59:01;3.35;;;2.53;;
13026;SDS011;6580;42.680;23.324;2023-05-29T14:01:50;3.85;;;2.95;;
13026;SDS011;6580;42.680;23.324;2023-05-29T14:04:37;2.10;;;2.00;;
13026;SDS011;6580;42.680;23.324;2023-05-29T14:07:26;1.92;;;1.83;;
13026;SDS011;6580;42.680;23.324;2023-05-29T14:10:12;1.42;;;1.33;;
13026;SDS011;6580;42.680;23.324;2023-05-29T14:12:57;1.95;;;1.60;;
13026;SDS011;6580;42.680;23.324;2023-05-29T14:15:43;2.25;;;1.98;;
13026;SDS011;6580;42.680;23.324;2023-05-29T14:18:28;1.48;;;1.38;;
13026;SDS011;6580;42.680;23.324;2023-05-29T14:21:16;2.13;;;1.80;;
13026;SDS011;6580;42.680;23.324;2023-05-29T14:24:06;1.80;;;1.70;;
13026;SDS011;6580;42.680;23.324;2023-05-29T14:26:53;2.28;;;2.08;;
13026;SDS011;6580;42.680;23.324;2023-05-29T14:29:40;2.10;;;1.90;;
13026;SDS011;6580;42.680;23.324;2023-05-29T14:32:26;2.08;;;1.88;;
13026;SDS011;6580;42.680;23.324;2023-05-29T14:35:15;1.60;;;1.50;;
13026;SDS011;6580;42.680;23.324;2023-05-29T14:38:02;2.08;;;1.73;;
13026;SDS011;6580;42.680;23.324;2023-05-29T14:40:48;2.20;;;2.00;;
13026;SDS011;6580;42.680;23.324;2023-05-29T14:43:37;1.75;;;1.65;;
13026;SDS011;6580;42.680;23.324;2023-05-29T14:46:24;2.17;;;2.08;;
13026;SDS011;6580;42.680;23.324;2023-05-29T14:49:14;2.08;;;1.88;;
13026;SDS011;6580;42.680;23.324;2023-05-29T14:52:02;2.15;;;1.90;;
13026;SDS011;6580;42.680;23.324;2023-05-29T14:54:51;1.70;;;1.55;;
13026;SDS011;6580;42.680;23.324;2023-05-29T14:57:38;2.03;;;1.75;;
13026;SDS011;6580;42.680;23.324;2023-05-29T15:00:23;2.10;;;1.90;;
13026;SDS011;6580;42.680;23.324;2023-05-29T15:03:09;2.22;;;2.13;;
13026;SDS011;6580;42.680;23.324;2023-05-29T15:05:56;2.47;;;2.03;;
13026;SDS011;6580;42.680;23.324;2023-05-29T15:08:42;2.25;;;2.10;;
13026;SDS011;6580;42.680;23.324;2023-05-29T15:11:30;3.63;;;2.25;;
13026;SDS011;6580;42.680;23.324;2023-05-29T15:14:17;2.60;;;2.40;;
13026;SDS011;6580;42.680;23.324;2023-05-29T15:17:03;5.25;;;4.78;;
13026;SDS011;6580;42.680;23.324;2023-05-29T15:19:49;4.65;;;2.65;;
13026;SDS011;6580;42.680;23.324;2023-05-29T15:22:35;3.42;;;3.08;;
13026;SDS011;6580;42.680;23.324;2023-05-29T15:25:22;3.20;;;2.90;;
13026;SDS011;6580;42.680;23.324;2023-05-29T15:28:09;4.53;;;3.45;;
13026;SDS011;6580;42.680;23.324;2023-05-29T15:30:57;4.90;;;2.92;;
13026;SDS011;6580;42.680;23.324;2023-05-29T15:33:42;2.42;;;2.17;;
13026;SDS011;6580;42.680;23.324;2023-05-29T15:36:31;2.97;;;2.78;;
13026;SDS011;6580;42.680;23.324;2023-05-29T15:39:20;2.55;;;2.35;;
13026;SDS011;6580;42.680;23.324;2023-05-29T15:42:10;4.28;;;3.25;;
13026;SDS011;6580;42.680;23.324;2023-05-29T15:45:00;3.28;;;2.60;;
13026;SDS011;6580;42.680;23.324;2023-05-29T15:47:48;3.22;;;2.95;;
13026;SDS011;6580;42.680;23.324;2023-05-29T15:50:36;2.40;;;2.20;;
13026;SDS011;6580;42.680;23.324;2023-05-29T15:53:23;2.50;;;2.30;;
13026;SDS011;6580;42.680;23.324;2023-05-29T15:56:09;2.25;;;2.03;;
13026;SDS011;6580;42.680;23.324;2023-05-29T15:58:54;2.45;;;2.25;;
13026;SDS011;6580;42.680;23.324;2023-05-29T16:01:42;2.40;;;2.20;;
13026;SDS011;6580;42.680;23.324;2023-05-29T16:04:28;3.30;;;3.03;;
13026;SDS011;6580;42.680;23.324;2023-05-29T16:07:13;3.60;;;3.30;;
13026;SDS011;6580;42.680;23.324;2023-05-29T16:09:59;4.68;;;3.63;;
13026;SDS011;6580;42.680;23.324;2023-05-29T16:12:45;3.97;;;3.30;;
13026;SDS011;6580;42.680;23.324;2023-05-29T16:15:32;3.17;;;2.95;;
13026;SDS011;6580;42.680;23.324;2023-05-29T16:18:23;3.63;;;3.33;;
13026;SDS011;6580;42.680;23.324;2023-05-29T16:21:09;3.88;;;3.58;;
13026;SDS011;6580;42.680;23.324;2023-05-29T16:23:55;3.55;;;3.25;;
13026;SDS011;6580;42.680;23.324;2023-05-29T16:26:41;4.32;;;3.83;;
13026;SDS011;6580;42.680;23.324;2023-05-29T16:29:27;5.22;;;4.18;;
13026;SDS011;6580;42.680;23.324;2023-05-29T16:32:14;4.90;;;3.45;;
13026;SDS011;6580;42.680;23.324;2023-05-29T16:35:01;5.80;;;4.78;;
13026;SDS011;6580;42.680;23.324;2023-05-29T16:37:48;5.20;;;4.70;;
13026;SDS011;6580;42.680;23.324;2023-05-29T16:40:33;4.18;;;3.50;;
13026;SDS011;6580;42.680;23.324;2023-05-29T16:43:19;4.63;;;4.10;;
13026;SDS011;6580;42.680;23.324;2023-05-29T16:46:06;7.70;;;5.63;;
13026;SDS011;6580;42.680;23.324;2023-05-29T16:48:53;4.53;;;4.00;;
13026;SDS011;6580;42.680;23.324;2023-05-29T16:51:40;5.30;;;3.80;;
13026;SDS011;6580;42.680;23.324;2023-05-29T16:54:25;4.57;;;4.10;;
13026;SDS011;6580;42.680;23.324;2023-05-29T16:57:14;5.05;;;3.65;;
13026;SDS011;6580;42.680;23.324;2023-05-29T17:00:02;3.40;;;3.08;;